Etusivu
METAR-TAF:

METAR-TAF

Lentoasemat :

Jackson Municipal Airport

Jackson, Minnesota, Yhdysvallat

Leveyspiiri: 43-39N, Pituuspiiri: 094-59W, korkeus merenpinnasta: 441 m

Tämänhetkinen sää

Tämä raportti tehtiin 50 minuuttia sitten, kello 10.55 UTC
Tuuli 6 kn koillisesta
Lämpötila -6°C
Kosteus 93%
Ilmanpaine 1014 hPa
Näkyvyys: 16.1 km
Hajanaisia pilviä 10000 ft:n korkeudessa

METAR: KMJQ 241055Z AUTO 04006KT 10SM SCT100 M06/M07 A2995 RMK AO2 PWINO

Aika: 05:45 (11:45 UTC)


TAF: puuttuu

Säähavainnot ja -ennusteet yli 4000 lentoasemalta (METAR- ja TAF-raportit).

Käytössä olevat sääasemat on merkitty karttaan keltaisilla ja punaisilla pisteillä.

Aseta hiiri pisteen päälle nähdäksesi sääaseman nimen.

Klikkaa sitten nähdäksesi säähavainnot ja -ennusteet.

Kartan vaihtaminen: klikkaa mustalla rastilla varustettuja vihreitä pisteitä, niin voit zoomata sisään; viivalla varustettua vihreää pistettä, niin voit zoomata ulos tai vihreitä nuolia, niin pääset viereisille kartoille.


METAR-TAF: